Time;durP1;ratioP1;P1;durP2;ratioP2;P2;SDS_P1;SDS_P2;PMS_P1;PMS_P2;Temp;Humidity;BMP_temperature;BMP_pressure;BME280_temperature;BME280_humidity;BME280_pressure;Samples;Min_cycle;Max_cycle;Signal;HPM_P1;HPM_P2
2022/08/02 00:00:13;;;;;;;5.00;4.50;;;19.40;99.90;;;;;;2110969;28;20044;-72
2022/08/02 00:01:14;;;;;;;4.93;4.25;;;19.40;99.90;;;;;;2110123;28;20031;-71
2022/08/02 00:02:14;;;;;;;7.13;4.03;;;19.40;99.90;;;;;;2107019;28;20052;-72
2022/08/02 00:03:15;;;;;;;5.32;4.05;;;19.30;99.90;;;;;;2106101;28;20038;-71
2022/08/02 00:04:16;;;;;;;4.07;3.67;;;19.30;99.90;;;;;;2097257;28;20050;-73
2022/08/02 00:05:17;;;;;;;4.30;3.72;;;19.40;99.90;;;;;;2089301;28;20068;-72
2022/08/02 00:06:17;;;;;;;4.75;3.88;;;19.30;99.90;;;;;;2098253;28;20029;-74
2022/08/02 00:07:19;;;;;;;3.88;3.58;;;19.30;99.90;;;;;;2088933;28;20132;-74
2022/08/02 00:08:25;;;;;;;3.58;3.28;;;19.30;99.90;;;;;;2098258;28;20692;-73
2022/08/02 00:09:26;;;;;;;3.47;3.17;;;19.20;99.90;;;;;;2098171;28;20032;-72
2022/08/02 00:10:27;;;;;;;3.28;2.97;;;19.20;99.90;;;;;;2099814;28;20119;-74
2022/08/02 00:11:27;;;;;;;3.72;3.00;;;19.30;99.90;;;;;;2097740;28;20024;-73
2022/08/02 00:12:31;;;;;;;3.22;2.92;;;19.20;99.90;;;;;;2089196;28;20531;-73
2022/08/02 00:13:32;;;;;;;3.33;2.80;;;19.20;99.90;;;;;;2089551;28;20039;-72
2022/08/02 00:14:33;;;;;;;3.20;2.90;;;19.20;99.90;;;;;;2088524;28;20080;-73
2022/08/02 00:15:33;;;;;;;3.55;3.03;;;19.20;99.90;;;;;;2096472;28;20103;-73
2022/08/02 00:16:34;;;;;;;2.95;2.75;;;19.20;99.90;;;;;;2106045;28;20087;-73
2022/08/02 00:17:35;;;;;;;3.00;2.70;;;19.20;99.90;;;;;;2096427;28;20024;-73
2022/08/02 00:18:36;;;;;;;3.08;2.88;;;19.20;99.90;;;;;;2096546;28;20058;-73
2022/08/02 00:19:37;;;;;;;3.40;2.70;;;19.10;99.90;;;;;;2096598;28;20447;-73
2022/08/02 00:20:38;;;;;;;3.30;2.60;;;19.20;99.90;;;;;;2109687;28;20016;-73
2022/08/02 00:21:38;;;;;;;3.10;2.65;;;19.10;99.90;;;;;;2099008;28;20028;-71
2022/08/02 00:22:39;;;;;;;3.08;2.72;;;19.10;99.90;;;;;;2096995;28;20497;-72
2022/08/02 00:23:40;;;;;;;3.00;2.70;;;19.10;99.90;;;;;;2105981;28;20549;-72
2022/08/02 00:24:40;;;;;;;2.95;2.63;;;19.00;99.90;;;;;;2105685;28;20118;-74
2022/08/02 00:25:41;;;;;;;3.13;2.83;;;19.00;99.90;;;;;;2097493;28;20036;-72
2022/08/02 00:26:42;;;;;;;3.03;2.80;;;19.00;99.90;;;;;;2097008;28;20802;-72
2022/08/02 00:27:43;;;;;;;2.97;2.78;;;19.00;99.90;;;;;;2096675;28;20064;-72
2022/08/02 00:28:47;;;;;;;3.03;2.70;;;19.00;99.90;;;;;;2097574;28;20037;-71
2022/08/02 00:29:50;;;;;;;2.90;2.63;;;18.90;99.90;;;;;;2097378;28;20028;-72
2022/08/02 00:30:51;;;;;;;3.42;2.80;;;19.00;99.90;;;;;;2090473;28;20841;-72
2022/08/02 00:31:52;;;;;;;2.90;2.50;;;18.90;99.90;;;;;;2096983;28;20036;-72
2022/08/02 00:32:52;;;;;;;3.95;2.60;;;18.90;99.90;;;;;;2096677;28;20834;-72
2022/08/02 00:33:53;;;;;;;2.95;2.58;;;18.90;99.90;;;;;;2096765;28;20086;-72
2022/08/02 00:34:54;;;;;;;3.63;2.67;;;18.90;99.90;;;;;;2107485;28;20016;-72
2022/08/02 00:35:55;;;;;;;3.08;2.60;;;18.90;99.90;;;;;;2097903;28;20753;-73
2022/08/02 00:36:56;;;;;;;2.70;2.50;;;18.90;99.90;;;;;;2096587;28;20032;-72
2022/08/02 00:37:57;;;;;;;2.67;2.40;;;18.90;99.90;;;;;;2105453;28;20570;-72
2022/08/02 00:38:57;;;;;;;3.00;2.70;;;18.90;99.90;;;;;;2105723;28;20039;-71
2022/08/02 00:39:58;;;;;;;2.75;2.55;;;18.90;99.90;;;;;;2105527;28;20012;-71
2022/08/02 00:40:59;;;;;;;2.83;2.63;;;18.90;99.90;;;;;;2106771;28;20012;-72
2022/08/02 00:42:00;;;;;;;3.35;2.60;;;18.90;99.90;;;;;;2098125;28;20024;-72
2022/08/02 00:43:07;;;;;;;2.70;2.50;;;18.90;99.90;;;;;;2097660;28;20028;-72
2022/08/02 00:44:07;;;;;;;2.63;2.42;;;18.90;99.90;;;;;;2107478;28;20502;-72
2022/08/02 00:45:08;;;;;;;2.78;2.58;;;18.90;99.90;;;;;;2106591;28;20027;-71
2022/08/02 00:46:10;;;;;;;3.65;2.50;;;18.90;99.90;;;;;;2107068;28;20088;-70
2022/08/02 00:47:13;;;;;;;2.95;2.70;;;18.90;99.90;;;;;;2106840;28;20035;-72
2022/08/02 00:48:14;;;;;;;3.78;2.90;;;18.90;99.90;;;;;;2104976;28;20508;-72
2022/08/02 00:49:15;;;;;;;2.75;2.45;;;18.80;99.90;;;;;;2096456;28;20030;-71
2022/08/02 00:50:16;;;;;;;2.80;2.50;;;18.80;99.90;;;;;;2096238;28;20032;-70
2022/08/02 00:51:17;;;;;;;2.60;2.40;;;18.80;99.90;;;;;;2097001;28;20041;-71
2022/08/02 00:52:18;;;;;;;2.70;2.50;;;18.80;99.90;;;;;;2098453;28;20441;-71
2022/08/02 00:53:18;;;;;;;2.65;2.45;;;18.80;99.90;;;;;;2104926;28;20036;-71
2022/08/02 00:54:19;;;;;;;2.63;2.42;;;18.70;99.90;;;;;;2104892;28;20067;-71
2022/08/02 00:55:20;;;;;;;2.78;2.55;;;18.80;99.90;;;;;;2105191;28;20031;-71
2022/08/02 00:56:21;;;;;;;3.70;2.60;;;18.70;99.90;;;;;;2095821;28;20024;-71
2022/08/02 00:57:22;;;;;;;2.55;2.35;;;18.70;99.90;;;;;;2096157;28;20080;-71
2022/08/02 00:58:23;;;;;;;2.72;2.53;;;18.70;99.90;;;;;;2107250;28;20024;-71
2022/08/02 00:59:24;;;;;;;2.75;2.50;;;18.60;99.90;;;;;;2105295;28;20024;-71
2022/08/02 01:00:24;;;;;;;2.67;2.47;;;18.70;99.90;;;;;;2106341;28;20020;-71
2022/08/02 01:01:37;;;;;;;2.95;2.58;;;18.60;99.90;;;;;;2105075;28;20020;-71
2022/08/02 01:02:38;;;;;;;2.85;2.65;;;18.60;99.90;;;;;;2097769;28;20471;-71
2022/08/02 01:03:38;;;;;;;2.50;2.20;;;18.60;99.90;;;;;;2095920;28;20047;-71
2022/08/02 01:04:39;;;;;;;2.80;2.60;;;18.60;99.90;;;;;;2104993;28;20024;-71
2022/08/02 01:05:40;;;;;;;2.53;2.33;;;18.60;99.90;;;;;;2105494;28;20109;-71
2022/08/02 01:06:42;;;;;;;2.47;2.28;;;18.60;99.90;;;;;;2105094;28;20095;-71
2022/08/02 01:07:42;;;;;;;3.47;2.47;;;18.50;99.90;;;;;;2106513;28;20024;-71
2022/08/02 01:08:43;;;;;;;3.35;2.67;;;18.50;99.90;;;;;;2095926;28;20569;-71
2022/08/02 01:09:44;;;;;;;4.85;4.45;;;18.50;99.90;;;;;;2096703;28;20035;-71
2022/08/02 01:10:45;;;;;;;5.15;4.75;;;18.50;99.90;;;;;;2099639;28;20457;-71
2022/08/02 01:11:46;;;;;;;4.22;3.92;;;18.50;99.90;;;;;;2096605;28;20033;-71
2022/08/02 01:12:47;;;;;;;5.55;3.88;;;18.50;99.90;;;;;;2104798;28;20069;-71
2022/08/02 01:13:48;;;;;;;3.75;3.35;;;18.50;99.90;;;;;;2105052;28;20532;-71
2022/08/02 01:14:54;;;;;;;3.45;3.13;;;18.40;99.90;;;;;;2104878;28;20020;-71
2022/08/02 01:16:02;;;;;;;3.95;2.95;;;18.40;99.90;;;;;;2104774;28;20673;-72
2022/08/02 01:17:29;;;;;;;4.25;3.08;;;18.40;99.90;;;;;;2104644;28;20028;-72
2022/08/02 01:18:39;;;;;;;4.93;3.17;;;18.40;99.90;;;;;;2094989;28;20077;-71
2022/08/02 01:19:49;;;;;;;3.10;2.60;;;18.40;99.90;;;;;;2097377;28;20055;-72
2022/08/02 01:21:11;;;;;;;3.53;2.97;;;18.40;99.90;;;;;;2096028;28;20118;-72
2022/08/02 01:22:43;;;;;;;3.55;2.80;;;18.40;99.90;;;;;;2099126;28;20032;-71
2022/08/02 01:23:58;;;;;;;3.38;2.83;;;18.40;99.90;;;;;;2105090;28;20016;-73
2022/08/02 01:25:17;;;;;;;3.17;2.90;;;18.40;99.90;;;;;;2096950;28;20402;-72
2022/08/02 01:26:40;;;;;;;3.88;3.30;;;18.40;99.90;;;;;;2099844;28;20511;-72
2022/08/02 01:28:08;;;;;;;4.00;3.60;;;18.30;99.90;;;;;;2095884;28;20037;-72
2022/08/02 01:29:29;;;;;;;3.75;3.30;;;18.30;99.90;;;;;;2092615;28;20025;-72
2022/08/02 01:30:33;;;;;;;3.60;3.30;;;18.30;99.90;;;;;;2091493;28;20028;-73
2022/08/02 01:31:37;;;;;;;3.92;3.50;;;18.30;99.90;;;;;;2089075;28;20099;-72
2022/08/02 01:32:43;;;;;;;3.70;3.20;;;18.30;99.90;;;;;;2098099;28;20035;-72
2022/08/02 01:33:52;;;;;;;4.13;3.50;;;18.30;99.90;;;;;;2106051;28;20099;-73
2022/08/02 01:35:09;;;;;;;3.70;3.40;;;18.20;99.90;;;;;;2106240;28;20058;-73
2022/08/02 01:36:16;;;;;;;4.80;3.40;;;18.20;99.90;;;;;;2106585;28;20031;-73
2022/08/02 01:37:38;;;;;;;3.95;3.45;;;18.20;99.90;;;;;;2097063;28;20036;-72
2022/08/02 01:38:45;;;;;;;3.88;3.40;;;18.20;99.90;;;;;;2099476;28;20016;-73
2022/08/02 01:39:53;;;;;;;3.70;3.40;;;18.20;99.90;;;;;;2096143;28;20027;-73
2022/08/02 01:40:56;;;;;;;4.05;3.53;;;18.10;99.90;;;;;;2097469;28;20048;-73
2022/08/02 01:41:59;;;;;;;3.90;3.50;;;18.10;99.90;;;;;;2105429;28;20070;-73
2022/08/02 01:43:00;;;;;;;4.38;3.78;;;18.10;99.90;;;;;;2105702;28;20036;-75
2022/08/02 01:44:02;;;;;;;4.68;3.30;;;18.10;99.90;;;;;;2105323;28;20754;-71
2022/08/02 01:45:05;;;;;;;3.85;3.40;;;18.10;99.90;;;;;;2105024;28;20024;-73
2022/08/02 01:46:06;;;;;;;3.80;3.42;;;18.10;99.90;;;;;;2096123;28;20394;-73
2022/08/02 01:47:14;;;;;;;4.15;3.42;;;18.10;99.90;;;;;;2096345;28;20040;-71
2022/08/02 01:48:16;;;;;;;3.72;3.40;;;18.10;99.90;;;;;;2095739;28;20082;-71
2022/08/02 01:49:19;;;;;;;3.88;3.42;;;18.10;99.90;;;;;;2096288;28;20025;-70
2022/08/02 01:50:26;;;;;;;3.80;3.17;;;18.10;99.90;;;;;;2105284;28;20023;-71
2022/08/02 01:52:50;;;;;;;3.30;3.00;;;18.00;99.90;;;;;;2105089;28;20032;-71
2022/08/02 01:53:51;;;;;;;3.00;2.80;;;18.00;99.90;;;;;;2105368;28;20047;-72
2022/08/02 01:55:07;;;;;;;3.50;3.20;;;18.00;99.90;;;;;;2105546;28;20119;-73
2022/08/02 01:56:10;;;;;;;3.40;3.10;;;18.00;99.90;;;;;;2105307;28;20417;-71
2022/08/02 01:57:13;;;;;;;3.22;2.83;;;18.00;99.90;;;;;;2096958;28;20597;-71
2022/08/02 01:58:16;;;;;;;4.68;2.92;;;18.00;99.90;;;;;;2097555;28;20127;-72
2022/08/02 01:59:20;;;;;;;3.50;3.20;;;18.00;99.90;;;;;;2096642;28;20020;-72
2022/08/02 02:00:24;;;;;;;3.08;2.78;;;18.00;99.90;;;;;;2088533;28;20040;-69
2022/08/02 02:01:25;;;;;;;3.08;2.80;;;18.00;99.90;;;;;;2096502;28;20032;-74
2022/08/02 02:02:27;;;;;;;3.40;3.10;;;18.00;99.90;;;;;;2105191;28;20474;-73
2022/08/02 02:03:31;;;;;;;3.58;3.28;;;18.00;99.90;;;;;;2105154;28;20024;-73
2022/08/02 02:04:34;;;;;;;4.03;3.00;;;18.00;99.90;;;;;;2104857;28;20020;-73
2022/08/02 02:05:36;;;;;;;3.53;3.17;;;18.00;99.90;;;;;;2104816;28;20032;-71
2022/08/02 02:06:38;;;;;;;3.25;3.00;;;18.00;99.90;;;;;;2105053;28;20039;-71
2022/08/02 02:07:41;;;;;;;2.97;2.72;;;18.00;99.90;;;;;;2095893;28;20751;-71
2022/08/02 02:08:43;;;;;;;2.90;2.70;;;18.00;99.90;;;;;;2096030;28;20062;-71
2022/08/02 02:09:45;;;;;;;3.38;3.03;;;18.00;99.90;;;;;;2096522;28;20055;-71
2022/08/02 02:10:46;;;;;;;3.38;3.08;;;18.00;99.90;;;;;;2104903;28;20428;-72
2022/08/02 02:11:48;;;;;;;3.53;3.22;;;18.00;99.90;;;;;;2106655;28;20020;-70
2022/08/02 02:12:50;;;;;;;3.65;3.20;;;18.00;99.90;;;;;;2106749;28;20028;-73
2022/08/02 02:13:51;;;;;;;4.50;3.10;;;18.00;99.90;;;;;;2097953;28;20020;-72
2022/08/02 02:14:54;;;;;;;5.63;2.97;;;18.00;99.90;;;;;;2098185;28;20020;-72
2022/08/02 02:15:57;;;;;;;4.25;3.08;;;18.00;99.90;;;;;;2107039;28;20043;-72
2022/08/02 02:16:59;;;;;;;5.20;3.10;;;18.00;99.90;;;;;;2098105;28;20829;-71
2022/08/02 02:18:02;;;;;;;4.28;3.20;;;18.10;99.90;;;;;;2097836;28;20443;-71
2022/08/02 02:19:03;;;;;;;5.30;2.80;;;18.10;99.90;;;;;;2097392;28;20499;-71
2022/08/02 02:20:05;;;;;;;4.15;3.22;;;18.10;99.90;;;;;;2097795;28;20016;-71
2022/08/02 02:21:06;;;;;;;3.92;3.35;;;18.10;99.90;;;;;;2106700;28;20016;-72
2022/08/02 02:22:07;;;;;;;5.93;3.33;;;18.10;99.90;;;;;;2106743;28;20115;-72
2022/08/02 02:23:07;;;;;;;4.78;3.20;;;18.10;99.90;;;;;;2106610;28;20031;-71
2022/08/02 02:24:08;;;;;;;3.38;3.08;;;18.10;99.90;;;;;;2106706;28;20028;-73
2022/08/02 02:25:11;;;;;;;4.72;2.92;;;18.10;99.90;;;;;;2106808;28;20393;-73
2022/08/02 02:26:16;;;;;;;3.42;3.00;;;18.10;99.90;;;;;;2097637;28;20074;-71
2022/08/02 02:27:17;;;;;;;3.30;3.00;;;18.10;99.90;;;;;;2097754;28;20044;-71
2022/08/02 02:28:29;;;;;;;3.95;3.00;;;18.10;99.90;;;;;;2097395;28;20372;-72
2022/08/02 02:29:31;;;;;;;3.40;3.10;;;18.10;99.90;;;;;;2106604;28;20039;-72
2022/08/02 02:30:34;;;;;;;3.40;3.10;;;18.10;99.90;;;;;;2106936;28;20040;-72
2022/08/02 02:31:39;;;;;;;3.33;3.10;;;18.10;99.90;;;;;;2106389;28;20035;-73
2022/08/02 02:32:40;;;;;;;3.80;3.20;;;18.10;99.90;;;;;;2097478;28;20464;-71
2022/08/02 02:33:59;;;;;;;3.58;3.25;;;18.10;99.90;;;;;;2089530;28;20858;-72
2022/08/02 02:35:03;;;;;;;4.40;3.22;;;18.10;99.90;;;;;;2091975;28;20598;-72
2022/08/02 02:36:06;;;;;;;4.00;3.50;;;18.10;99.90;;;;;;2097825;28;20029;-71
2022/08/02 02:37:13;;;;;;;4.13;3.50;;;18.00;99.90;;;;;;2106273;28;20028;-72
2022/08/02 02:38:19;;;;;;;5.50;3.60;;;18.00;99.90;;;;;;2097140;28;20032;-73
2022/08/02 02:39:24;;;;;;;4.07;3.67;;;18.00;99.90;;;;;;2098831;28;20039;-72
2022/08/02 02:40:27;;;;;;;4.30;3.88;;;17.90;99.90;;;;;;2106865;28;20039;-73
2022/08/02 02:41:28;;;;;;;4.00;3.60;;;17.90;99.90;;;;;;2106642;28;20036;-71
2022/08/02 02:42:32;;;;;;;4.68;3.65;;;17.90;99.90;;;;;;2106321;28;20055;-72
2022/08/02 02:43:36;;;;;;;4.50;4.10;;;17.90;99.90;;;;;;2106371;28;20051;-71
2022/08/02 02:44:39;;;;;;;5.07;4.57;;;17.90;99.90;;;;;;2097414;28;20060;-72
2022/08/02 02:45:41;;;;;;;4.80;4.40;;;17.80;99.90;;;;;;2097343;28;20119;-72
2022/08/02 02:46:43;;;;;;;5.00;4.10;;;17.80;99.90;;;;;;2097230;28;20072;-72
2022/08/02 02:47:46;;;;;;;4.10;3.70;;;17.80;99.90;;;;;;2097305;28;20025;-72
2022/08/02 02:48:49;;;;;;;4.20;3.80;;;17.80;99.90;;;;;;2106567;28;20023;-73
2022/08/02 02:49:51;;;;;;;3.63;3.33;;;17.80;99.90;;;;;;2106205;28;20027;-73
2022/08/02 02:50:53;;;;;;;4.40;3.65;;;17.80;99.90;;;;;;2097407;28;20090;-73
2022/08/02 02:51:55;;;;;;;3.80;3.50;;;17.80;99.90;;;;;;2089049;28;20123;-73
2022/08/02 02:52:57;;;;;;;3.80;3.50;;;17.80;99.90;;;;;;2097570;28;20108;-73
2022/08/02 02:53:58;;;;;;;3.70;3.40;;;17.80;99.90;;;;;;2105994;28;20099;-73
2022/08/02 02:55:00;;;;;;;3.80;3.50;;;17.80;99.90;;;;;;2106307;28;20697;-71
2022/08/02 02:56:01;;;;;;;3.95;3.55;;;17.80;99.90;;;;;;2106197;28;20036;-71
2022/08/02 02:57:04;;;;;;;4.00;3.40;;;17.70;99.90;;;;;;2106308;28;20084;-74
2022/08/02 02:58:05;;;;;;;3.78;3.42;;;17.70;99.90;;;;;;2096810;28;20041;-70
2022/08/02 02:59:07;;;;;;;4.80;3.40;;;17.70;99.90;;;;;;2097295;28;20024;-72
2022/08/02 03:00:11;;;;;;;3.80;3.40;;;17.70;99.90;;;;;;2105995;28;20024;-72
2022/08/02 03:01:29;;;;;;;3.95;3.55;;;17.70;99.90;;;;;;2106087;28;20028;-72
2022/08/02 03:02:30;;;;;;;4.13;3.53;;;17.70;99.90;;;;;;2106049;28;20024;-72
2022/08/02 03:03:32;;;;;;;3.65;3.30;;;17.70;99.90;;;;;;2106133;28;20031;-71
2022/08/02 03:04:34;;;;;;;5.85;3.88;;;17.70;99.90;;;;;;2106159;28;20096;-70
2022/08/02 03:05:35;;;;;;;3.70;3.40;;;17.70;99.90;;;;;;2105914;28;20040;-72
2022/08/02 03:06:37;;;;;;;4.70;3.60;;;17.70;99.90;;;;;;2106011;28;20028;-73
2022/08/02 03:07:39;;;;;;;5.32;3.45;;;17.70;99.90;;;;;;2105907;28;20024;-72
2022/08/02 03:08:39;;;;;;;4.30;3.72;;;17.70;99.90;;;;;;2097041;28;20043;-72
2022/08/02 03:09:40;;;;;;;3.90;3.55;;;17.70;99.90;;;;;;2097357;28;20063;-71
2022/08/02 03:10:42;;;;;;;4.25;3.60;;;17.70;99.90;;;;;;2106475;28;20032;-72
2022/08/02 03:11:43;;;;;;;3.92;3.40;;;17.70;99.90;;;;;;2107065;28;20099;-72
2022/08/02 03:12:44;;;;;;;4.07;3.17;;;17.70;99.90;;;;;;2089821;28;20375;-72
2022/08/02 03:13:45;;;;;;;3.50;3.20;;;17.70;99.90;;;;;;2089472;28;20067;-72
2022/08/02 03:14:46;;;;;;;3.70;3.40;;;17.70;99.90;;;;;;2106006;28;20035;-74
2022/08/02 03:15:52;;;;;;;3.80;3.45;;;17.70;99.90;;;;;;2106195;28;20028;-73
2022/08/02 03:16:53;;;;;;;3.85;3.45;;;17.80;99.90;;;;;;2098389;28;20098;-70
2022/08/02 03:17:54;;;;;;;3.30;3.00;;;17.80;99.90;;;;;;2102692;28;20032;-73
2022/08/02 03:18:56;;;;;;;3.63;3.30;;;17.80;99.90;;;;;;2111979;28;20111;-73
2022/08/02 03:19:57;;;;;;;4.40;3.63;;;17.80;99.90;;;;;;2112935;28;20016;-71
2022/08/02 03:21:12;;;;;;;4.45;3.50;;;17.80;99.90;;;;;;2112525;28;20084;-72
2022/08/02 03:22:13;;;;;;;4.47;3.40;;;17.80;99.90;;;;;;2111701;28;20050;-72
2022/08/02 03:23:13;;;;;;;4.68;3.35;;;17.80;99.90;;;;;;2103575;28;20048;-72
2022/08/02 03:24:14;;;;;;;3.70;3.40;;;17.80;99.90;;;;;;2104621;28;20032;-72
2022/08/02 03:25:16;;;;;;;6.18;3.78;;;17.80;99.90;;;;;;2110100;28;20091;-72
2022/08/02 03:26:17;;;;;;;6.10;3.40;;;17.80;99.90;;;;;;2108672;28;20032;-72
2022/08/02 03:27:18;;;;;;;8.23;3.85;;;17.80;99.90;;;;;;2107666;28;20027;-71
2022/08/02 03:28:19;;;;;;;5.57;3.65;;;17.80;99.90;;;;;;2106671;28;20063;-71
2022/08/02 03:29:19;;;;;;;6.72;3.53;;;17.80;99.90;;;;;;2106501;28;20107;-73
2022/08/02 03:30:23;;;;;;;3.85;3.45;;;17.80;99.90;;;;;;2105845;28;20437;-72
2022/08/02 03:31:24;;;;;;;6.05;3.70;;;17.80;99.90;;;;;;2106125;28;20089;-72
2022/08/02 03:32:24;;;;;;;4.60;3.90;;;17.80;99.90;;;;;;2106235;28;20598;-72
2022/08/02 03:33:26;;;;;;;6.22;3.90;;;17.80;99.90;;;;;;2106054;28;20028;-73
2022/08/02 03:34:27;;;;;;;4.38;3.50;;;17.80;99.90;;;;;;2106130;28;20031;-72
2022/08/02 03:35:27;;;;;;;5.82;3.85;;;17.80;99.90;;;;;;2106103;28;20024;-71
2022/08/02 03:36:31;;;;;;;4.82;3.78;;;17.80;99.90;;;;;;2105913;28;20443;-72
2022/08/02 03:37:34;;;;;;;3.85;3.42;;;17.80;99.90;;;;;;2105840;28;20425;-72
2022/08/02 03:38:36;;;;;;;4.57;3.60;;;17.80;99.90;;;;;;2096944;28;20029;-72
2022/08/02 03:39:37;;;;;;;5.05;3.47;;;17.80;99.90;;;;;;2097172;28;20031;-72
2022/08/02 03:40:38;;;;;;;3.60;3.28;;;17.80;99.90;;;;;;2106111;28;20042;-72
2022/08/02 03:41:40;;;;;;;3.50;3.20;;;17.80;99.90;;;;;;2106362;28;20024;-73
2022/08/02 03:42:41;;;;;;;4.75;3.75;;;17.70;99.90;;;;;;2106350;28;20062;-72
2022/08/02 03:43:46;;;;;;;3.95;3.30;;;17.70;99.90;;;;;;2088973;28;20106;-72
2022/08/02 03:44:48;;;;;;;3.60;3.30;;;17.70;99.90;;;;;;2089928;28;20541;-71
2022/08/02 03:45:50;;;;;;;3.67;3.38;;;17.70;99.90;;;;;;2105925;28;20110;-73
2022/08/02 03:46:52;;;;;;;4.30;3.90;;;17.70;99.90;;;;;;2106329;28;20028;-72
2022/08/02 03:47:53;;;;;;;5.45;4.00;;;17.60;99.90;;;;;;2106035;28;20069;-72
2022/08/02 03:48:55;;;;;;;4.30;3.90;;;17.60;99.90;;;;;;2088818;28;20211;-72
2022/08/02 03:49:57;;;;;;;5.75;4.03;;;17.60;99.90;;;;;;2089164;28;20021;-73
2022/08/02 03:50:58;;;;;;;3.90;3.50;;;17.60;99.90;;;;;;2106076;28;20028;-73
2022/08/02 03:52:00;;;;;;;4.10;3.70;;;17.60;99.90;;;;;;2105727;28;20084;-73
2022/08/02 03:53:01;;;;;;;4.10;3.70;;;17.60;99.90;;;;;;2096743;28;20059;-72
2022/08/02 03:54:03;;;;;;;4.78;3.70;;;17.60;99.90;;;;;;2097066;28;20094;-72
2022/08/02 03:55:04;;;;;;;3.90;3.42;;;17.60;99.90;;;;;;2105490;28;20020;-72
2022/08/02 03:56:06;;;;;;;4.22;3.80;;;17.70;99.90;;;;;;2105747;28;20091;-72
2022/08/02 03:57:06;;;;;;;3.97;3.67;;;17.70;99.90;;;;;;2105704;28;20433;-74
2022/08/02 03:58:07;;;;;;;4.18;3.50;;;17.70;99.90;;;;;;2105804;28;20077;-72
2022/08/02 03:59:13;;;;;;;4.15;3.75;;;17.80;99.90;;;;;;2105830;28;20024;-72
2022/08/02 04:00:18;;;;;;;4.18;3.78;;;17.80;99.90;;;;;;2105861;28;20047;-72
2022/08/02 04:01:19;;;;;;;4.35;3.78;;;17.80;99.90;;;;;;2105805;28;20052;-72
2022/08/02 04:02:19;;;;;;;4.72;3.65;;;17.80;99.90;;;;;;2097008;28;20051;-73
2022/08/02 04:03:20;;;;;;;4.00;3.55;;;17.80;99.90;;;;;;2097167;28;20025;-73
2022/08/02 04:04:21;;;;;;;4.22;3.83;;;17.80;99.90;;;;;;2105797;28;20541;-71
2022/08/02 04:05:21;;;;;;;3.95;3.55;;;17.80;99.90;;;;;;2096661;28;20512;-72
2022/08/02 04:06:22;;;;;;;4.72;3.35;;;17.90;99.90;;;;;;2096719;28;20028;-73
2022/08/02 04:07:22;;;;;;;4.25;3.65;;;17.90;99.90;;;;;;2105675;28;20032;-70
2022/08/02 04:08:23;;;;;;;5.35;3.60;;;17.90;99.90;;;;;;2096776;28;20074;-71
2022/08/02 04:09:24;;;;;;;4.10;3.70;;;18.00;99.90;;;;;;2096830;28;20024;-72
2022/08/02 04:10:25;;;;;;;3.85;3.50;;;18.00;99.90;;;;;;2097069;28;20036;-73
2022/08/02 04:11:31;;;;;;;6.38;3.85;;;18.00;99.90;;;;;;2096905;28;20037;-71
2022/08/02 04:12:32;;;;;;;3.63;3.25;;;18.00;99.90;;;;;;2106132;28;20085;-73
2022/08/02 04:13:35;;;;;;;3.97;3.50;;;18.10;99.90;;;;;;2106093;28;20495;-72
2022/08/02 04:14:36;;;;;;;5.45;3.58;;;18.10;99.90;;;;;;2105887;28;20037;-73
2022/08/02 04:15:37;;;;;;;3.60;3.30;;;18.10;99.90;;;;;;2105862;28;20024;-72
2022/08/02 04:16:45;;;;;;;3.92;3.53;;;18.20;99.90;;;;;;2105608;28;20020;-73
2022/08/02 04:17:55;;;;;;;4.30;3.60;;;18.20;99.90;;;;;;2096586;28;20066;-72
2022/08/02 04:19:00;;;;;;;3.75;3.45;;;18.30;99.90;;;;;;2097831;28;20017;-72
2022/08/02 04:20:11;;;;;;;3.88;3.53;;;18.30;99.90;;;;;;2105650;28;20036;-73
2022/08/02 04:21:20;;;;;;;5.00;3.60;;;18.30;99.90;;;;;;2106214;28;20080;-74
2022/08/02 04:22:50;;;;;;;5.93;3.78;;;18.40;99.90;;;;;;2097154;28;20084;-74
2022/08/02 04:23:52;;;;;;;6.00;3.65;;;18.60;99.90;;;;;;2101355;28;20028;-74
2022/08/02 04:24:59;;;;;;;6.22;3.70;;;18.90;99.90;;;;;;2096778;28;20616;-73
2022/08/02 04:26:04;;;;;;;6.32;3.53;;;19.10;99.90;;;;;;2089550;28;20136;-71
2022/08/02 04:27:07;;;;;;;5.13;3.85;;;19.40;99.90;;;;;;2097705;28;20691;-73
2022/08/02 04:28:09;;;;;;;4.55;3.80;;;19.60;99.90;;;;;;2080713;28;20220;-74
2022/08/02 04:29:12;;;;;;;4.22;3.35;;;19.80;99.90;;;;;;2089092;28;20155;-73
2022/08/02 04:30:15;;;;;;;5.20;3.63;;;20.00;99.90;;;;;;2088407;28;20033;-72
2022/08/02 04:31:17;;;;;;;4.63;3.33;;;20.00;99.90;;;;;;2088936;28;20036;-73
2022/08/02 04:32:19;;;;;;;4.18;3.75;;;20.10;99.90;;;;;;2105614;28;20054;-73
2022/08/02 04:33:19;;;;;;;5.43;3.40;;;20.20;99.90;;;;;;2105036;28;20033;-73
2022/08/02 04:34:20;;;;;;;3.30;3.00;;;20.40;99.90;;;;;;2096059;28;20558;-72
2022/08/02 04:35:21;;;;;;;4.03;3.33;;;20.50;99.90;;;;;;2088446;28;20029;-72
2022/08/02 04:36:22;;;;;;;5.82;3.35;;;20.60;99.90;;;;;;2096601;28;20035;-74
2022/08/02 04:37:25;;;;;;;4.28;3.17;;;20.60;99.90;;;;;;2096636;28;20025;-72
2022/08/02 04:38:26;;;;;;;3.53;3.15;;;20.50;99.90;;;;;;2097070;28;20033;-73
2022/08/02 04:39:27;;;;;;;3.75;3.20;;;20.40;99.90;;;;;;2097320;28;20032;-72
2022/08/02 04:40:27;;;;;;;5.65;3.20;;;20.20;99.90;;;;;;2096819;28;20033;-73
2022/08/02 04:41:42;;;;;;;4.85;3.20;;;20.10;99.90;;;;;;2096914;28;20028;-72
2022/08/02 04:42:42;;;;;;;3.55;3.25;;;19.90;99.90;;;;;;2090623;28;20053;-71
2022/08/02 04:43:43;;;;;;;3.58;3.10;;;19.80;99.90;;;;;;2097057;28;20461;-71
2022/08/02 04:44:44;;;;;;;4.05;3.30;;;19.60;99.90;;;;;;2105893;28;20028;-73
2022/08/02 04:45:48;;;;;;;3.63;3.17;;;19.50;99.90;;;;;;2105660;28;20058;-73
2022/08/02 04:46:50;;;;;;;6.40;3.25;;;19.40;99.90;;;;;;2105629;28;20031;-72
2022/08/02 04:47:51;;;;;;;5.65;3.45;;;19.30;99.90;;;;;;2105329;28;20028;-72
2022/08/02 04:48:52;;;;;;;4.07;3.38;;;19.20;99.90;;;;;;2096146;28;20048;-73
2022/08/02 04:49:53;;;;;;;5.03;3.20;;;19.20;99.90;;;;;;2096413;28;20021;-72
2022/08/02 04:50:54;;;;;;;3.88;3.47;;;19.10;99.90;;;;;;2096594;28;20032;-73
2022/08/02 04:51:55;;;;;;;5.45;3.47;;;19.10;99.90;;;;;;2096613;28;20093;-73
2022/08/02 04:52:55;;;;;;;4.75;3.40;;;19.10;99.90;;;;;;2105269;28;20096;-73
2022/08/02 04:53:56;;;;;;;4.93;3.10;;;19.10;99.90;;;;;;2105499;28;20020;-72
2022/08/02 04:54:56;;;;;;;5.80;3.72;;;19.00;99.90;;;;;;2105489;28;20024;-72
2022/08/02 04:55:57;;;;;;;5.75;3.28;;;19.10;99.90;;;;;;2105706;28;20509;-72
2022/08/02 04:56:58;;;;;;;4.00;3.40;;;19.10;99.90;;;;;;2105573;28;20024;-71
2022/08/02 04:57:58;;;;;;;5.03;3.30;;;19.10;99.90;;;;;;2105420;28;20040;-72
2022/08/02 04:58:59;;;;;;;7.05;3.45;;;19.10;99.90;;;;;;2105777;28;20111;-71
2022/08/02 05:00:00;;;;;;;5.57;3.60;;;19.10;99.90;;;;;;2105853;28;20020;-74
2022/08/02 05:01:01;;;;;;;4.28;3.53;;;19.20;99.90;;;;;;2105385;28;20020;-72
2022/08/02 05:02:02;;;;;;;4.97;3.80;;;19.20;99.90;;;;;;2105175;28;20028;-72
2022/08/02 05:03:03;;;;;;;6.55;3.50;;;19.30;99.90;;;;;;2105517;28;20129;-72
2022/08/02 05:04:04;;;;;;;7.85;4.00;;;19.40;99.90;;;;;;2106006;28;20073;-70
2022/08/02 05:05:05;;;;;;;7.15;3.90;;;19.50;99.90;;;;;;2088379;28;20033;-72
2022/08/02 05:06:06;;;;;;;6.07;3.65;;;19.70;99.90;;;;;;2088983;28;20138;-72
2022/08/02 05:07:06;;;;;;;6.85;3.80;;;19.80;99.90;;;;;;2106331;28;20039;-72
2022/08/02 05:08:07;;;;;;;9.13;3.67;;;19.90;99.90;;;;;;2105987;28;20036;-73
2022/08/02 05:09:08;;;;;;;4.53;3.47;;;20.00;99.90;;;;;;2096961;28;20035;-72
2022/08/02 05:10:09;;;;;;;6.57;4.07;;;20.00;99.90;;;;;;2096556;28;20024;-72
2022/08/02 05:11:09;;;;;;;6.63;4.35;;;20.00;99.90;;;;;;2105354;28;20087;-73
2022/08/02 05:12:10;;;;;;;7.00;4.40;;;20.00;99.90;;;;;;2105380;28;20719;-72
2022/08/02 05:13:10;;;;;;;6.82;4.10;;;20.10;99.90;;;;;;2105349;28;20031;-73
2022/08/02 05:14:11;;;;;;;7.45;4.47;;;20.40;99.90;;;;;;2096411;28;20074;-73
2022/08/02 05:15:15;;;;;;;5.47;4.32;;;20.60;99.90;;;;;;2096623;28;20134;-71
2022/08/02 05:16:16;;;;;;;5.22;4.15;;;20.90;99.90;;;;;;2105089;28;20077;-72
2022/08/02 05:17:17;;;;;;;6.45;4.45;;;21.20;99.90;;;;;;2105507;28;20077;-72
2022/08/02 05:18:17;;;;;;;6.03;4.07;;;21.40;99.90;;;;;;2105279;28;20146;-74
2022/08/02 05:19:18;;;;;;;6.75;4.30;;;21.60;99.90;;;;;;2105325;28;20812;-73
2022/08/02 05:20:19;;;;;;;4.85;4.28;;;21.80;99.90;;;;;;2096579;28;20029;-74
2022/08/02 05:21:20;;;;;;;6.35;4.07;;;21.90;99.90;;;;;;2096647;28;20020;-74
2022/08/02 05:22:20;;;;;;;4.75;4.22;;;21.90;99.90;;;;;;2105424;28;20690;-74
2022/08/02 05:23:21;;;;;;;6.10;4.13;;;21.90;99.90;;;;;;2105370;28;20056;-75
2022/08/02 05:24:22;;;;;;;4.22;3.75;;;22.00;99.90;;;;;;2105443;28;20077;-74
2022/08/02 05:25:22;;;;;;;5.25;3.90;;;22.00;99.90;;;;;;2105522;28;20040;-74
2022/08/02 05:26:23;;;;;;;6.25;3.95;;;22.10;99.90;;;;;;2096820;28;20040;-73
2022/08/02 05:27:24;;;;;;;4.95;4.10;;;22.20;99.90;;;;;;2096246;28;20032;-73
2022/08/02 05:28:24;;;;;;;4.28;3.88;;;22.20;99.90;;;;;;2105470;28;20039;-72
2022/08/02 05:29:25;;;;;;;4.53;3.90;;;22.20;99.90;;;;;;2096507;28;20028;-75